Flight Track Log - Related Links

Times and Time Zones

All times are in EDT time to prevent confusion due to time zone crossing. See the NDU31 flight status page for this flight to view local times or setup timezone preferences in your user account.

Time Position Orientation Groundspeed Altitude Reporting Facility
EDT Latitude Longitude Course Direction KTS MPH feet Rate Location/Type
Sun 02:29:06 PM 41.0822 -87.8369 117° Southeast 74 85 1,200  Level Chicago Center
Sun 02:30:08 PM 41.0722 -87.8047 112° Southeast 79 91 1,900 581 Climbing Chicago Center
Sun 02:31:10 PM 41.0592 -87.7767 122° Southeast 85 98 2,400 532 Climbing Chicago Center
Sun 02:32:12 PM 41.0508 -87.7475 111° Southeast 85 98 3,000 581 Climbing Chicago Center
Sun 02:33:00 PM 41.0260 -87.6015 106° East  Level Estimated
Sun 02:33:14 PM 41.0456 -87.7175 103° East 85 98 3,600  Level Chicago Center
Sun 02:34:00 PM 41.0117 -87.5640 117° Southeast  Level FlightAware Approximate
Sun 02:34:16 PM 41.0408 -87.6850 101° East 87 100 4,100  Level Chicago Center
Sun 02:35:18 PM 41.0339 -87.6472 104° East 88 101 4,700 484 Climbing Chicago Center
Sun 02:36:20 PM 41.0283 -87.6161 103° East 88 101 5,100 387 Climbing Chicago Center
Sun 02:37:22 PM 41.0219 -87.5842 105° East 89 102 5,500 435 Climbing Chicago Center
Sun 02:38:24 PM 41.0156 -87.5519 105° East 90 104 6,000 387 Climbing Chicago Center
Sun 02:39:26 PM 41.0092 -87.5211 105° East 89 102 6,300 384 Climbing Chicago Center
Sun 02:40:29 PM 41.0028 -87.4831 103° East 89 102 6,800 336 Climbing Chicago Center
Sun 02:41:31 PM 40.9972 -87.4503 103° East 91 105 7,000 145 Climbing Chicago Center
Sun 02:42:33 PM 40.9872 -87.4108 109° East 111 128 7,100  Climbing Chicago Center
Sun 02:43:35 PM 40.9792 -87.3697 105° East 115 132 7,000 -97 Descending Chicago Center
Sun 02:44:37 PM 40.9739 -87.3278 99° East 115 132 6,900  Descending Chicago Center
Sun 02:45:39 PM 40.9669 -87.2769 100° East 117 135 7,000  Climbing Chicago Center
Sun 02:46:41 PM 40.9586 -87.2361 105° East 118 136 6,900  Descending Chicago Center
Sun 02:47:03 PM 40.9569 -87.2178 97° East 117 135 7,000 97 Climbing Chicago Center
Sun 02:47:43 PM 40.9500 -87.1967 114° Southeast 114 131 7,000  Level Chicago Center
Sun 02:48:40 PM 40.9450 -87.1536 99° East 117 135 7,000  Level Chicago Center
Sun 02:49:41 PM 40.9361 -87.1117 106° East 121 139 7,000  Level Chicago Center
Sun 02:50:41 PM 40.9256 -87.0669 107° East 121 139 7,000  Level Chicago Center
Sun 02:51:48 PM 40.9169 -87.0194 103° East 119 137 7,000 47 Level Chicago Center
Sun 02:52:48 PM 40.9100 -86.9806 103° East 117 135 7,100  Climbing Chicago Center
Sun 02:53:49 PM 40.9033 -86.9361 101° East 117 135 7,000 -49 Descending Chicago Center
Sun 02:54:50 PM 40.8928 -86.8914 107° East 122 140 7,000  Level Chicago Center
Sun 02:55:50 PM 40.8839 -86.8494 106° East 120 138 7,000  Level Chicago Center
Sun 02:56:51 PM 40.8750 -86.8050 105° East 121 139 7,000  Level Chicago Center
Sun 02:57:51 PM 40.8683 -86.7633 102° East 122 140 7,000  Level Chicago Center
Sun 02:58:52 PM 40.8575 -86.7186 108° East 122 140 7,000  Level Chicago Center
Sun 02:59:53 PM 40.8486 -86.6767 106° East 121 139 7,000  Level Chicago Center
Sun 03:00:09 PM 40.8483 -86.6697 93° East 123 142 7,000  Level Chicago Center
Sun 03:01:11 PM 40.8375 -86.6214 106° East 117 135 7,000  Level Chicago Center
Sun 03:01:54 PM 40.8328 -86.5906 101° East 121 139 7,000  Level Chicago Center
Sun 03:02:13 PM 40.8292 -86.5769 109° East 124 143 7,000  Level Chicago Center
Sun 03:02:54 PM 40.8239 -86.5461 103° East 121 139 7,000  Level Chicago Center
Sun 03:03:15 PM 40.8206 -86.5333 109° East 123 142 7,000  Level Chicago Center
Sun 03:03:55 PM 40.8131 -86.5014 107° East 122 140 7,000  Level Chicago Center
Sun 03:04:17 PM 40.8128 -86.4911 92° East 120 138 7,000  Level Chicago Center
Sun 03:04:56 PM 40.8081 -86.4600 101° East 122 140 7,000  Level Chicago Center
Sun 03:05:20 PM 40.8056 -86.4475 105° East 122 140 7,000  Level Chicago Center
Sun 03:05:57 PM 40.7992 -86.4156 105° East 120 138 7,000  Level Chicago Center
Sun 03:06:22 PM 40.7983 -86.4050 96° East 119 137 7,000  Level Chicago Center
Sun 03:06:57 PM 40.7922 -86.3739 105° East 121 139 7,000  Level Chicago Center
Sun 03:07:24 PM 40.7864 -86.3564 114° Southeast 121 139 7,000  Level Chicago Center
Sun 03:07:58 PM 40.7792 -86.3292 109° East 121 139 7,000  Level Chicago Center
Sun 03:08:26 PM 40.7758 -86.3136 106° East 123 142 7,000  Level Chicago Center
Sun 03:08:58 PM 40.7681 -86.2903 114° Southeast 120 138 7,000  Level Chicago Center
Sun 03:09:28 PM 40.7653 -86.2725 102° East 121 139 7,000  Level Chicago Center
Sun 03:09:59 PM 40.7611 -86.2431 101° East 122 140 7,000  Level Chicago Center
Sun 03:10:30 PM 40.7583 -86.2281 104° East 124 143 7,000 -98 Level Chicago Center
Sun 03:11:00 PM 40.7522 -86.2014 107° East 124 143 6,900 -97 Descending Chicago Center
Sun 03:11:32 PM 40.7486 -86.1839 105° East 127 146 6,900 100 Level Chicago Center
Sun 03:12:00 PM 40.7411 -86.1569 110° East 124 143 7,000 97 Climbing Chicago Center
Sun 03:12:34 PM 40.7361 -86.1317 105° East 126 145 7,000  Level Chicago Center
Sun 03:13:01 PM 40.7319 -86.1153 109° East 122 140 7,000  Level Chicago Center
Sun 03:13:36 PM 40.7297 -86.0889 96° East 122 140 7,000  Level Chicago Center
Sun 03:14:38 PM 40.7231 -86.0444 101° East 123 142 7,000  Level Chicago Center
Sun 03:15:40 PM 40.7172 -86.0006 100° East 123 142 7,000  Level Chicago Center
Sun 03:16:42 PM 40.7069 -85.9564 107° East 125 144 7,000  Level Chicago Center
Sun 03:17:44 PM 40.6969 -85.9044 104° East 124 143 7,000  Level Chicago Center
Sun 03:18:46 PM 40.6881 -85.8614 105° East 123 142 7,000  Level Chicago Center
Sun 03:19:49 PM 40.6789 -85.8158 105° East 126 145 7,000  Level Chicago Center
Sun 03:20:51 PM 40.6700 -85.7706 104° East 125 144 7,000  Level Chicago Center
Sun 03:21:53 PM 40.6589 -85.7267 108° East 124 143 7,000 -48 Level Chicago Center
Sun 03:22:55 PM 40.6478 -85.6831 109° East 125 144 6,900  Descending Chicago Center
Sun 03:23:57 PM 40.6408 -85.6383 102° East 124 143 7,000 48 Climbing Chicago Center
Sun 03:24:59 PM 40.6306 -85.5878 105° East 123 142 7,000 48 Level Chicago Center
Sun 03:26:01 PM 40.6228 -85.5431 103° East 123 142 7,100 48 Climbing Chicago Center
Sun 03:27:03 PM 40.6133 -85.4981 105° East 126 145 7,100 -48 Level Chicago Center
Sun 03:28:05 PM 40.6042 -85.4531 105° East 127 146 7,000 -48 Descending Chicago Center
Sun 03:29:07 PM 40.5922 -85.4111 111° Southeast 123 142 7,000 -48 Level Chicago Center
Sun 03:30:09 PM 40.5803 -85.3661 109° East 126 145 6,900  Descending Chicago Center
Sun 03:31:11 PM 40.5692 -85.3214 108° East 128 147 7,000  Climbing Chicago Center
Sun 03:32:14 PM 40.5622 -85.2692 100° East 126 145 6,900  Descending Chicago Center
Sun 03:33:16 PM 40.5522 -85.2236 106° East 127 146 7,000 48 Climbing Chicago Center
Sun 03:34:18 PM 40.5431 -85.1806 106° East 124 143 7,000  Level Chicago Center
Sun 03:35:20 PM 40.5339 -85.1361 105° East 125 144 7,000  Level Chicago Center
Sun 03:36:03 PM 40.5269 -85.1081 108° East 126 145 7,000 57 Level Indianapolis Center
Sun 03:37:05 PM 40.5158 -85.0550 105° East 127 146 7,100 48 Climbing Indianapolis Center
Sun 03:38:07 PM 40.5067 -85.0086 105° East 129 148 7,100  Level Indianapolis Center
Sun 03:39:09 PM 40.4978 -84.9656 105° East 127 146 7,100 -48 Level Indianapolis Center
Sun 03:40:12 PM 40.4872 -84.9211 107° East 125 144 7,000 -48 Descending Indianapolis Center
Sun 03:41:14 PM 40.4781 -84.8772 105° East 125 144 7,000  Level Indianapolis Center
Sun 03:42:16 PM 40.4722 -84.8311 99° East 126 145 7,000  Level Indianapolis Center
Sun 03:43:18 PM 40.4653 -84.7856 101° East 126 145 7,000  Level Indianapolis Center
Sun 03:44:20 PM 40.4567 -84.7328 102° East 126 145 7,000 56 Level Indianapolis Center
Sun 03:45:06 PM 40.4486 -84.6997 108° East 124 143 7,100  Climbing Indianapolis Center
Sun 03:45:22 PM 40.4444 -84.6917 124° Southeast 122 140 7,000 -77 Descending Indianapolis Center
Sun 03:46:24 PM 40.4369 -84.6456 102° East 126 145 7,000 68 Level Indianapolis Center
Sun 03:46:50 PM 40.4317 -84.6258 109° East 126 145 7,100 97 Climbing Indianapolis Center
Sun 03:47:26 PM 40.4250 -84.6025 111° Southeast 125 144 7,100  Level Indianapolis Center
Sun 03:47:57 PM 40.4192 -84.5747 105° East 125 144 7,100  Level Indianapolis Center
Sun 03:48:28 PM 40.4133 -84.5586 115° Southeast 125 144 7,100  Level Indianapolis Center
Sun 03:48:58 PM 40.4058 -84.5319 110° East 127 146 7,100 -97 Level Indianapolis Center
Sun 03:49:30 PM 40.4000 -84.5144 114° Southeast 128 147 7,000  Descending Indianapolis Center
Sun 03:50:05 PM 40.3931 -84.4833 106° East 130 150 7,100  Climbing Indianapolis Center
Sun 03:50:32 PM 40.3897 -84.4689 107° East 131 151 7,000  Descending Indianapolis Center
Sun 03:51:12 PM 40.3803 -84.4322 109° East 130 150 7,100 97 Climbing Indianapolis Center
Sun 03:51:34 PM 40.3789 -84.4153 96° East 129 148 7,100  Level Indianapolis Center
Sun 03:52:07 PM 40.3753 -84.3906 101° East 129 148 7,100 -97 Level Indianapolis Center
Sun 03:52:36 PM 40.3706 -84.3689 106° East 129 148 7,000  Descending Indianapolis Center
Sun 03:53:07 PM 40.3642 -84.3453 110° East 128 147 7,100  Climbing Indianapolis Center
Sun 03:53:38 PM 40.3600 -84.3247 105° East 128 147 7,000  Descending Indianapolis Center
Sun 03:54:08 PM 40.3528 -84.3025 113° Southeast 127 146 7,100  Climbing Indianapolis Center
Sun 03:54:40 PM 40.3497 -84.2794 100° East 128 147 7,000  Descending Indianapolis Center
Sun 03:55:09 PM 40.3439 -84.2575 109° East 127 146 7,100 97 Climbing Indianapolis Center
Sun 03:55:42 PM 40.3392 -84.2342 105° East 129 148 7,100  Level Indianapolis Center
Sun 03:56:10 PM 40.3331 -84.2069 106° East 129 148 7,100 -97 Level Indianapolis Center
Sun 03:56:44 PM 40.3311 -84.1897 98° East 126 145 7,000  Descending Indianapolis Center
Sun 03:57:11 PM 40.3261 -84.1647 105° East 126 145 7,100 97 Climbing Indianapolis Center
Sun 03:57:46 PM 40.3219 -84.1453 106° East 126 145 7,100 -98 Level Indianapolis Center
Sun 03:58:12 PM 40.3169 -84.1197 104° East 125 144 7,000  Descending Indianapolis Center
Sun 03:58:48 PM 40.3117 -84.0992 109° East 127 146 7,100 98 Climbing Indianapolis Center
Sun 03:59:13 PM 40.3078 -84.0747 102° East 128 147 7,100 -97 Level Indianapolis Center
Sun 03:59:50 PM 40.3022 -84.0447 104° East 129 148 7,000  Descending Indianapolis Center
Sun 04:00:14 PM 40.2967 -84.0294 115° Southeast 130 150 7,100  Climbing Indianapolis Center
Sun 04:00:52 PM 40.2900 -84.0017 107° East 128 147 7,000  Descending Indianapolis Center
Sun 04:01:15 PM 40.2833 -83.9842 117° Southeast 125 144 7,100  Climbing Indianapolis Center
Sun 04:01:54 PM 40.2800 -83.9567 99° East 127 146 7,000  Descending Indianapolis Center
Sun 04:02:22 PM 40.2744 -83.9364 110° East 128 147 7,100 -97 Climbing Indianapolis Center
Sun 04:02:56 PM 40.2700 -83.9122 104° East 127 146 6,900 -100 Descending Indianapolis Center
Sun 04:03:22 PM 40.2653 -83.8914 107° East 128 147 7,000  Climbing Indianapolis Center
Sun 04:03:58 PM 40.2589 -83.8681 110° East 127 146 6,900 109 Descending Indianapolis Center
Sun 04:04:17 PM 40.2536 -83.8517 113° Southeast 125 144 7,100  Climbing Indianapolis Center
Sun 04:05:00 PM 40.2483 -83.8239 104° East 126 145 6,900 -98 Descending Indianapolis Center
Sun 04:05:18 PM 40.2422 -83.8064 115° Southeast 129 148 7,000 -97 Climbing Indianapolis Center
Sun 04:06:02 PM 40.2375 -83.7772 102° East 129 148 6,800 98 Descending Indianapolis Center
Sun 04:06:19 PM 40.2333 -83.7589 107° East 130 150 7,100 97 Climbing Indianapolis Center
Sun 04:07:04 PM 40.2283 -83.7336 105° East 127 146 6,900 -98 Descending Indianapolis Center
Sun 04:07:20 PM 40.2242 -83.7139 105° East 127 146 7,000  Climbing Indianapolis Center
Sun 04:08:06 PM 40.2200 -83.6794 99° East 127 146 6,900 98 Descending Indianapolis Center
Sun 04:08:21 PM 40.2169 -83.6694 112° Southeast 127 146 7,100  Climbing Indianapolis Center
Sun 04:09:08 PM 40.2094 -83.6339 105° East 128 147 6,900 -167 Descending Indianapolis Center
Sun 04:10:09 PM 40.1978 -83.5892 109° East 129 148 6,800 -49 Descending Indianapolis Center
Sun 04:11:11 PM 40.1844 -83.5461 112° Southeast 127 146 6,800 -290 Level Indianapolis Center
Sun 04:12:13 PM 40.1639 -83.5086 126° Southeast 126 145 6,200 -677 Descending Indianapolis Center
Sun 04:13:15 PM 40.1439 -83.4686 123° Southeast 128 147 5,400 -823 Descending Indianapolis Center
Sun 04:14:17 PM 40.1242 -83.4319 125° Southeast 126 145 4,500 -871 Descending Indianapolis Center
Sun 04:15:19 PM 40.1011 -83.4019 135° Southeast 119 137 3,600 -726 Descending Indianapolis Center
Sun 04:16:21 PM 40.0886 -83.3589 111° Southeast 113 130 3,000 -290 Descending Indianapolis Center
Sun 04:17:23 PM 40.0781 -83.3242 112° Southeast 106 122 3,000 49 Level Indianapolis Center
Sun 04:18:23 PM 40.0683 -83.2908 111° Southeast 98 113 3,100  Climbing Indianapolis Center
Sun 04:19:24 PM 40.0692 -83.2503 88° East 117 135 3,000 -95 Descending Indianapolis Center
Sun 04:20:29 PM 40.0722 -83.2081 85° East 112 129 2,900 -295 Descending Indianapolis Center
Sun 04:21:26 PM 40.0725 -83.1717 89° East 94 108 2,400 -462 Descending Indianapolis Center
Sun 04:22:26 PM 40.0744 -83.1444 85° East 80 92 2,000 -512 Descending Indianapolis Center
Sun 04:23:35 PM 40.0756 -83.1106 88° East 87 100 1,300 -415 Descending Indianapolis Center
Sun 04:24:36 PM 40.0769 -83.0814 86° East 86 99 1,100 -197 Descending Indianapolis Center
Sun 04:26:00 PM 40.0798 -83.0732 114° Southeast  Level Estimated

Login

Don't have an account? Register now (free) for customized features, flight alerts, and more!